<?xml version="1.0" encoding="UTF-8" standalone="no" ?>
<gpx xmlns="http://www.topografix.com/GPX/1/1" xmlns:xsi="http://www.w3.org/2001/XMLSchema-instance" xsi:schemaLocation="http://www.topografix.com/GPX/1/1 http://www.topografix.com/GPX/1/1/gpx.xsd" version="1.1" creator="VisuGPX - https://www.visugpx.com">
  <metadata>
    <name>Liaison: 2  Sidiailles (croix cordeau)- Préveranges</name>
    <desc><![CDATA[Sentier des Maîtres Sonneurs Liaison 2: Sidiailles (Croix cordeau) - Préveranges

Cette liaison permet Les parcours des boucles secondaire: Marche Berrichonne ou Berry]]></desc>
  </metadata>
  <wpt lat="46.48591" lon="2.31101">
    <ele>346</ele>
    <name><![CDATA[Point de passage 1]]></name>
    <type><![CDATA[GENERIC]]></type>
  </wpt>
  <wpt lat="46.48587" lon="2.3112">
    <ele>345</ele>
    <name><![CDATA[Croix Cordeaux]]></name>
    <type><![CDATA[GENERIC]]></type>
  </wpt>
  <wpt lat="46.48315" lon="2.29223">
    <ele>341</ele>
    <name><![CDATA[Mont]]></name>
    <type><![CDATA[GENERIC]]></type>
  </wpt>
  <wpt lat="46.4681" lon="2.28096">
    <ele>320</ele>
    <name><![CDATA[Moulin du Montet]]></name>
    <type><![CDATA[GENERIC]]></type>
  </wpt>
  <wpt lat="46.45583" lon="2.26483">
    <ele>347</ele>
    <name><![CDATA[Rte du Colombier]]></name>
    <type><![CDATA[GENERIC]]></type>
  </wpt>
  <wpt lat="46.44734" lon="2.26203">
    <ele>358</ele>
    <name><![CDATA[Rivière Joyeuse]]></name>
    <type><![CDATA[GENERIC]]></type>
  </wpt>
  <wpt lat="46.43335" lon="2.25097">
    <ele>420</ele>
    <name><![CDATA[Liaison avec GRP]]></name>
    <type><![CDATA[GENERIC]]></type>
  </wpt>
  <wpt lat="46.43249" lon="2.25387">
    <ele>425</ele>
    <name><![CDATA[Place Eglise Préveranges]]></name>
    <type><![CDATA[GENERIC]]></type>
  </wpt>
  <trk>
    <name><![CDATA[Liaison Sidiailles (croix cordeau)- Préveranges]]></name>
    <trkseg>
      <trkpt lat="46.48591" lon="2.31101">
        <ele>346</ele>
        <time>2025-07-31T07:14:58.000Z</time>
      </trkpt>
      <trkpt lat="46.48587" lon="2.3112">
        <ele>345</ele>
        <time>2025-07-31T07:15:14.000Z</time>
      </trkpt>
      <trkpt lat="46.48458" lon="2.31048">
        <ele>347</ele>
        <time>2025-07-31T07:18:12.000Z</time>
      </trkpt>
      <trkpt lat="46.48359" lon="2.31009">
        <ele>346</ele>
        <time>2025-07-31T07:20:10.000Z</time>
      </trkpt>
      <trkpt lat="46.48342" lon="2.31004">
        <ele>345</ele>
        <time>2025-07-31T07:20:29.000Z</time>
      </trkpt>
      <trkpt lat="46.4838" lon="2.30862">
        <ele>344</ele>
        <time>2025-07-31T07:22:29.000Z</time>
      </trkpt>
      <trkpt lat="46.48422" lon="2.30776">
        <ele>343</ele>
        <time>2025-07-31T07:23:52.000Z</time>
      </trkpt>
      <trkpt lat="46.48434" lon="2.30729">
        <ele>342</ele>
        <time>2025-07-31T07:24:31.000Z</time>
      </trkpt>
      <trkpt lat="46.48441" lon="2.30656">
        <ele>340</ele>
        <time>2025-07-31T07:25:29.000Z</time>
      </trkpt>
      <trkpt lat="46.48439" lon="2.30616">
        <ele>339</ele>
        <time>2025-07-31T07:26:01.000Z</time>
      </trkpt>
      <trkpt lat="46.48428" lon="2.30506">
        <ele>334</ele>
        <time>2025-07-31T07:27:29.000Z</time>
      </trkpt>
      <trkpt lat="46.48432" lon="2.30409">
        <ele>329</ele>
        <time>2025-07-31T07:28:46.000Z</time>
      </trkpt>
      <trkpt lat="46.48444" lon="2.30296">
        <ele>324</ele>
        <time>2025-07-31T07:30:16.000Z</time>
      </trkpt>
      <trkpt lat="46.48446" lon="2.30201">
        <ele>320</ele>
        <time>2025-07-31T07:31:31.000Z</time>
      </trkpt>
      <trkpt lat="46.48464" lon="2.30123">
        <ele>317</ele>
        <time>2025-07-31T07:32:36.000Z</time>
      </trkpt>
      <trkpt lat="46.48469" lon="2.30111">
        <ele>316</ele>
        <time>2025-07-31T07:32:47.000Z</time>
      </trkpt>
      <trkpt lat="46.4848" lon="2.30105">
        <ele>315</ele>
        <time>2025-07-31T07:33:00.000Z</time>
      </trkpt>
      <trkpt lat="46.48479" lon="2.30075">
        <ele>313</ele>
        <time>2025-07-31T07:33:24.000Z</time>
      </trkpt>
      <trkpt lat="46.48475" lon="2.30063">
        <ele>312</ele>
        <time>2025-07-31T07:33:35.000Z</time>
      </trkpt>
      <trkpt lat="46.4843" lon="2.30008">
        <ele>305</ele>
        <time>2025-07-31T07:34:42.000Z</time>
      </trkpt>
      <trkpt lat="46.48359" lon="2.29959">
        <ele>302</ele>
        <time>2025-07-31T07:36:11.000Z</time>
      </trkpt>
      <trkpt lat="46.48256" lon="2.29899">
        <ele>305</ele>
        <time>2025-07-31T07:38:49.000Z</time>
      </trkpt>
      <trkpt lat="46.4825" lon="2.29868">
        <ele>304</ele>
        <time>2025-07-31T07:39:14.000Z</time>
      </trkpt>
      <trkpt lat="46.48252" lon="2.29862">
        <ele>307</ele>
        <time>2025-07-31T07:39:50.000Z</time>
      </trkpt>
      <trkpt lat="46.4828" lon="2.29855">
        <ele>307</ele>
        <time>2025-07-31T07:40:23.000Z</time>
      </trkpt>
      <trkpt lat="46.48318" lon="2.29834">
        <ele>310</ele>
        <time>2025-07-31T07:41:40.000Z</time>
      </trkpt>
      <trkpt lat="46.48363" lon="2.29809">
        <ele>312</ele>
        <time>2025-07-31T07:42:56.000Z</time>
      </trkpt>
      <trkpt lat="46.48395" lon="2.29802">
        <ele>311</ele>
        <time>2025-07-31T07:43:33.000Z</time>
      </trkpt>
      <trkpt lat="46.48476" lon="2.29748">
        <ele>316</ele>
        <time>2025-07-31T07:46:06.000Z</time>
      </trkpt>
      <trkpt lat="46.48521" lon="2.29704">
        <ele>314</ele>
        <time>2025-07-31T07:47:08.000Z</time>
      </trkpt>
      <trkpt lat="46.48526" lon="2.29698">
        <ele>313</ele>
        <time>2025-07-31T07:47:15.000Z</time>
      </trkpt>
      <trkpt lat="46.48526" lon="2.29691">
        <ele>314</ele>
        <time>2025-07-31T07:47:31.000Z</time>
      </trkpt>
      <trkpt lat="46.48492" lon="2.2963">
        <ele>319</ele>
        <time>2025-07-31T07:49:24.000Z</time>
      </trkpt>
      <trkpt lat="46.48437" lon="2.29507">
        <ele>326</ele>
        <time>2025-07-31T07:52:32.000Z</time>
      </trkpt>
      <trkpt lat="46.48337" lon="2.29308">
        <ele>338</ele>
        <time>2025-07-31T07:57:50.000Z</time>
      </trkpt>
      <trkpt lat="46.48315" lon="2.29223">
        <ele>341</ele>
        <time>2025-07-31T07:59:32.000Z</time>
      </trkpt>
      <trkpt lat="46.4829" lon="2.29163">
        <ele>343</ele>
        <time>2025-07-31T08:00:48.000Z</time>
      </trkpt>
      <trkpt lat="46.48273" lon="2.29133">
        <ele>343</ele>
        <time>2025-07-31T08:01:19.000Z</time>
      </trkpt>
      <trkpt lat="46.48214" lon="2.29061">
        <ele>346</ele>
        <time>2025-07-31T08:03:18.000Z</time>
      </trkpt>
      <trkpt lat="46.48193" lon="2.29049">
        <ele>346</ele>
        <time>2025-07-31T08:03:44.000Z</time>
      </trkpt>
      <trkpt lat="46.48165" lon="2.28976">
        <ele>348</ele>
        <time>2025-07-31T08:05:10.000Z</time>
      </trkpt>
      <trkpt lat="46.48122" lon="2.28915">
        <ele>348</ele>
        <time>2025-07-31T08:06:19.000Z</time>
      </trkpt>
      <trkpt lat="46.48116" lon="2.28864">
        <ele>347</ele>
        <time>2025-07-31T08:07:00.000Z</time>
      </trkpt>
      <trkpt lat="46.48108" lon="2.2884">
        <ele>347</ele>
        <time>2025-07-31T08:07:21.000Z</time>
      </trkpt>
      <trkpt lat="46.48092" lon="2.288">
        <ele>347</ele>
        <time>2025-07-31T08:07:57.000Z</time>
      </trkpt>
      <trkpt lat="46.48071" lon="2.28763">
        <ele>347</ele>
        <time>2025-07-31T08:08:35.000Z</time>
      </trkpt>
      <trkpt lat="46.48006" lon="2.28766">
        <ele>349</ele>
        <time>2025-07-31T08:10:10.000Z</time>
      </trkpt>
      <trkpt lat="46.47902" lon="2.28755">
        <ele>351</ele>
        <time>2025-07-31T08:12:30.000Z</time>
      </trkpt>
      <trkpt lat="46.47869" lon="2.28761">
        <ele>351</ele>
        <time>2025-07-31T08:13:08.000Z</time>
      </trkpt>
      <trkpt lat="46.47803" lon="2.28789">
        <ele>349</ele>
        <time>2025-07-31T08:14:27.000Z</time>
      </trkpt>
      <trkpt lat="46.47764" lon="2.28794">
        <ele>348</ele>
        <time>2025-07-31T08:15:12.000Z</time>
      </trkpt>
      <trkpt lat="46.47704" lon="2.28778">
        <ele>345</ele>
        <time>2025-07-31T08:16:22.000Z</time>
      </trkpt>
      <trkpt lat="46.47618" lon="2.28738">
        <ele>341</ele>
        <time>2025-07-31T08:18:05.000Z</time>
      </trkpt>
      <trkpt lat="46.47594" lon="2.28732">
        <ele>341</ele>
        <time>2025-07-31T08:18:33.000Z</time>
      </trkpt>
      <trkpt lat="46.47503" lon="2.28725">
        <ele>336</ele>
        <time>2025-07-31T08:20:17.000Z</time>
      </trkpt>
      <trkpt lat="46.47423" lon="2.28731">
        <ele>332</ele>
        <time>2025-07-31T08:21:49.000Z</time>
      </trkpt>
      <trkpt lat="46.47391" lon="2.28723">
        <ele>331</ele>
        <time>2025-07-31T08:22:26.000Z</time>
      </trkpt>
      <trkpt lat="46.47372" lon="2.28708">
        <ele>331</ele>
        <time>2025-07-31T08:22:51.000Z</time>
      </trkpt>
      <trkpt lat="46.47353" lon="2.28679">
        <ele>331</ele>
        <time>2025-07-31T08:23:22.000Z</time>
      </trkpt>
      <trkpt lat="46.47341" lon="2.28667">
        <ele>331</ele>
        <time>2025-07-31T08:23:39.000Z</time>
      </trkpt>
      <trkpt lat="46.4726" lon="2.28609">
        <ele>327</ele>
        <time>2025-07-31T08:25:23.000Z</time>
      </trkpt>
      <trkpt lat="46.47208" lon="2.28568">
        <ele>323</ele>
        <time>2025-07-31T08:26:30.000Z</time>
      </trkpt>
      <trkpt lat="46.472" lon="2.28566">
        <ele>323</ele>
        <time>2025-07-31T08:26:39.000Z</time>
      </trkpt>
      <trkpt lat="46.47164" lon="2.28567">
        <ele>321</ele>
        <time>2025-07-31T08:27:20.000Z</time>
      </trkpt>
      <trkpt lat="46.47129" lon="2.28583">
        <ele>318</ele>
        <time>2025-07-31T08:28:02.000Z</time>
      </trkpt>
      <trkpt lat="46.47116" lon="2.28577">
        <ele>318</ele>
        <time>2025-07-31T08:28:18.000Z</time>
      </trkpt>
      <trkpt lat="46.47087" lon="2.2855">
        <ele>317</ele>
        <time>2025-07-31T08:28:57.000Z</time>
      </trkpt>
      <trkpt lat="46.47067" lon="2.2852">
        <ele>319</ele>
        <time>2025-07-31T08:29:50.000Z</time>
      </trkpt>
      <trkpt lat="46.47039" lon="2.28424">
        <ele>320</ele>
        <time>2025-07-31T08:31:22.000Z</time>
      </trkpt>
      <trkpt lat="46.47021" lon="2.28392">
        <ele>320</ele>
        <time>2025-07-31T08:31:55.000Z</time>
      </trkpt>
      <trkpt lat="46.47015" lon="2.28371">
        <ele>321</ele>
        <time>2025-07-31T08:32:23.000Z</time>
      </trkpt>
      <trkpt lat="46.47" lon="2.28352">
        <ele>317</ele>
        <time>2025-07-31T08:32:46.000Z</time>
      </trkpt>
      <trkpt lat="46.46971" lon="2.2833">
        <ele>321</ele>
        <time>2025-07-31T08:34:05.000Z</time>
      </trkpt>
      <trkpt lat="46.46915" lon="2.28257">
        <ele>320</ele>
        <time>2025-07-31T08:35:31.000Z</time>
      </trkpt>
      <trkpt lat="46.46862" lon="2.28122">
        <ele>320</ele>
        <time>2025-07-31T08:37:34.000Z</time>
      </trkpt>
      <trkpt lat="46.46856" lon="2.28116">
        <ele>320</ele>
        <time>2025-07-31T08:37:42.000Z</time>
      </trkpt>
      <trkpt lat="46.46839" lon="2.28112">
        <ele>319</ele>
        <time>2025-07-31T08:38:02.000Z</time>
      </trkpt>
      <trkpt lat="46.4683" lon="2.28102">
        <ele>319</ele>
        <time>2025-07-31T08:38:15.000Z</time>
      </trkpt>
      <trkpt lat="46.4681" lon="2.28096">
        <ele>320</ele>
        <time>2025-07-31T08:38:49.000Z</time>
      </trkpt>
      <trkpt lat="46.46796" lon="2.2808">
        <ele>320</ele>
        <time>2025-07-31T08:39:09.000Z</time>
      </trkpt>
      <trkpt lat="46.46808" lon="2.28057">
        <ele>320</ele>
        <time>2025-07-31T08:39:32.000Z</time>
      </trkpt>
      <trkpt lat="46.4682" lon="2.28021">
        <ele>321</ele>
        <time>2025-07-31T08:40:14.000Z</time>
      </trkpt>
      <trkpt lat="46.46799" lon="2.28029">
        <ele>321</ele>
        <time>2025-07-31T08:40:39.000Z</time>
      </trkpt>
      <trkpt lat="46.46787" lon="2.28022">
        <ele>321</ele>
        <time>2025-07-31T08:40:54.000Z</time>
      </trkpt>
      <trkpt lat="46.46775" lon="2.28003">
        <ele>321</ele>
        <time>2025-07-31T08:41:14.000Z</time>
      </trkpt>
      <trkpt lat="46.46772" lon="2.27985">
        <ele>322</ele>
        <time>2025-07-31T08:41:39.000Z</time>
      </trkpt>
      <trkpt lat="46.46784" lon="2.27928">
        <ele>325</ele>
        <time>2025-07-31T08:42:57.000Z</time>
      </trkpt>
      <trkpt lat="46.46781" lon="2.27905">
        <ele>327</ele>
        <time>2025-07-31T08:43:36.000Z</time>
      </trkpt>
      <trkpt lat="46.46773" lon="2.2788">
        <ele>329</ele>
        <time>2025-07-31T08:44:18.000Z</time>
      </trkpt>
      <trkpt lat="46.46754" lon="2.2777">
        <ele>337</ele>
        <time>2025-07-31T08:47:10.000Z</time>
      </trkpt>
      <trkpt lat="46.46644" lon="2.2752">
        <ele>345</ele>
        <time>2025-07-31T08:52:26.000Z</time>
      </trkpt>
      <trkpt lat="46.46593" lon="2.27423">
        <ele>350</ele>
        <time>2025-07-31T08:54:53.000Z</time>
      </trkpt>
      <trkpt lat="46.4657" lon="2.27387">
        <ele>351</ele>
        <time>2025-07-31T08:55:43.000Z</time>
      </trkpt>
      <trkpt lat="46.4652" lon="2.27335">
        <ele>351</ele>
        <time>2025-07-31T08:56:53.000Z</time>
      </trkpt>
      <trkpt lat="46.46356" lon="2.27213">
        <ele>355</ele>
        <time>2025-07-31T09:01:05.000Z</time>
      </trkpt>
      <trkpt lat="46.46293" lon="2.27147">
        <ele>356</ele>
        <time>2025-07-31T09:02:44.000Z</time>
      </trkpt>
      <trkpt lat="46.46277" lon="2.27123">
        <ele>356</ele>
        <time>2025-07-31T09:03:10.000Z</time>
      </trkpt>
      <trkpt lat="46.46256" lon="2.27077">
        <ele>357</ele>
        <time>2025-07-31T09:04:04.000Z</time>
      </trkpt>
      <trkpt lat="46.46242" lon="2.27032">
        <ele>358</ele>
        <time>2025-07-31T09:04:53.000Z</time>
      </trkpt>
      <trkpt lat="46.46216" lon="2.26929">
        <ele>359</ele>
        <time>2025-07-31T09:06:30.000Z</time>
      </trkpt>
      <trkpt lat="46.46205" lon="2.26865">
        <ele>361</ele>
        <time>2025-07-31T09:07:43.000Z</time>
      </trkpt>
      <trkpt lat="46.46191" lon="2.26804">
        <ele>363</ele>
        <time>2025-07-31T09:08:54.000Z</time>
      </trkpt>
      <trkpt lat="46.46167" lon="2.26744">
        <ele>365</ele>
        <time>2025-07-31T09:10:09.000Z</time>
      </trkpt>
      <trkpt lat="46.46156" lon="2.26706">
        <ele>366</ele>
        <time>2025-07-31T09:10:52.000Z</time>
      </trkpt>
      <trkpt lat="46.46133" lon="2.26608">
        <ele>368</ele>
        <time>2025-07-31T09:12:34.000Z</time>
      </trkpt>
      <trkpt lat="46.46114" lon="2.26558">
        <ele>368</ele>
        <time>2025-07-31T09:13:19.000Z</time>
      </trkpt>
      <trkpt lat="46.46069" lon="2.26464">
        <ele>365</ele>
        <time>2025-07-31T09:14:49.000Z</time>
      </trkpt>
      <trkpt lat="46.46039" lon="2.2644">
        <ele>364</ele>
        <time>2025-07-31T09:15:28.000Z</time>
      </trkpt>
      <trkpt lat="46.46001" lon="2.26426">
        <ele>364</ele>
        <time>2025-07-31T09:16:13.000Z</time>
      </trkpt>
      <trkpt lat="46.45985" lon="2.26429">
        <ele>363</ele>
        <time>2025-07-31T09:16:31.000Z</time>
      </trkpt>
      <trkpt lat="46.45949" lon="2.26448">
        <ele>360</ele>
        <time>2025-07-31T09:17:15.000Z</time>
      </trkpt>
      <trkpt lat="46.45923" lon="2.26452">
        <ele>359</ele>
        <time>2025-07-31T09:17:45.000Z</time>
      </trkpt>
      <trkpt lat="46.45855" lon="2.26447">
        <ele>359</ele>
        <time>2025-07-31T09:19:03.000Z</time>
      </trkpt>
      <trkpt lat="46.45819" lon="2.26452">
        <ele>358</ele>
        <time>2025-07-31T09:19:45.000Z</time>
      </trkpt>
      <trkpt lat="46.45724" lon="2.26482">
        <ele>353</ele>
        <time>2025-07-31T09:21:36.000Z</time>
      </trkpt>
      <trkpt lat="46.45583" lon="2.26483">
        <ele>347</ele>
        <time>2025-07-31T09:24:17.000Z</time>
      </trkpt>
      <trkpt lat="46.4556" lon="2.26471">
        <ele>348</ele>
        <time>2025-07-31T09:24:55.000Z</time>
      </trkpt>
      <trkpt lat="46.45539" lon="2.26452">
        <ele>349</ele>
        <time>2025-07-31T09:25:33.000Z</time>
      </trkpt>
      <trkpt lat="46.45521" lon="2.26425">
        <ele>349</ele>
        <time>2025-07-31T09:26:03.000Z</time>
      </trkpt>
      <trkpt lat="46.45481" lon="2.26408">
        <ele>352</ele>
        <time>2025-07-31T09:27:22.000Z</time>
      </trkpt>
      <trkpt lat="46.45461" lon="2.26394">
        <ele>354</ele>
        <time>2025-07-31T09:28:08.000Z</time>
      </trkpt>
      <trkpt lat="46.45435" lon="2.26378">
        <ele>357</ele>
        <time>2025-07-31T09:29:11.000Z</time>
      </trkpt>
      <trkpt lat="46.45365" lon="2.26322">
        <ele>363</ele>
        <time>2025-07-31T09:31:45.000Z</time>
      </trkpt>
      <trkpt lat="46.45339" lon="2.2631">
        <ele>365</ele>
        <time>2025-07-31T09:32:36.000Z</time>
      </trkpt>
      <trkpt lat="46.45284" lon="2.26272">
        <ele>368</ele>
        <time>2025-07-31T09:34:17.000Z</time>
      </trkpt>
      <trkpt lat="46.45234" lon="2.26244">
        <ele>371</ele>
        <time>2025-07-31T09:35:49.000Z</time>
      </trkpt>
      <trkpt lat="46.45133" lon="2.26219">
        <ele>373</ele>
        <time>2025-07-31T09:38:07.000Z</time>
      </trkpt>
      <trkpt lat="46.45066" lon="2.26213">
        <ele>372</ele>
        <time>2025-07-31T09:39:24.000Z</time>
      </trkpt>
      <trkpt lat="46.44953" lon="2.26192">
        <ele>371</ele>
        <time>2025-07-31T09:41:34.000Z</time>
      </trkpt>
      <trkpt lat="46.44897" lon="2.26191">
        <ele>368</ele>
        <time>2025-07-31T09:42:38.000Z</time>
      </trkpt>
      <trkpt lat="46.44868" lon="2.262">
        <ele>366</ele>
        <time>2025-07-31T09:43:12.000Z</time>
      </trkpt>
      <trkpt lat="46.44782" lon="2.26198">
        <ele>360</ele>
        <time>2025-07-31T09:44:50.000Z</time>
      </trkpt>
      <trkpt lat="46.44734" lon="2.26203">
        <ele>358</ele>
        <time>2025-07-31T09:45:45.000Z</time>
      </trkpt>
      <trkpt lat="46.4469" lon="2.26156">
        <ele>358</ele>
        <time>2025-07-31T09:46:48.000Z</time>
      </trkpt>
      <trkpt lat="46.44656" lon="2.26133">
        <ele>358</ele>
        <time>2025-07-31T09:47:31.000Z</time>
      </trkpt>
      <trkpt lat="46.44629" lon="2.26122">
        <ele>360</ele>
        <time>2025-07-31T09:48:24.000Z</time>
      </trkpt>
      <trkpt lat="46.44604" lon="2.26084">
        <ele>360</ele>
        <time>2025-07-31T09:49:05.000Z</time>
      </trkpt>
      <trkpt lat="46.44602" lon="2.26063">
        <ele>361</ele>
        <time>2025-07-31T09:49:32.000Z</time>
      </trkpt>
      <trkpt lat="46.44608" lon="2.26042">
        <ele>361</ele>
        <time>2025-07-31T09:49:50.000Z</time>
      </trkpt>
      <trkpt lat="46.44601" lon="2.26031">
        <ele>361</ele>
        <time>2025-07-31T09:50:02.000Z</time>
      </trkpt>
      <trkpt lat="46.44585" lon="2.26021">
        <ele>362</ele>
        <time>2025-07-31T09:50:32.000Z</time>
      </trkpt>
      <trkpt lat="46.44564" lon="2.26019">
        <ele>363</ele>
        <time>2025-07-31T09:51:06.000Z</time>
      </trkpt>
      <trkpt lat="46.44487" lon="2.25957">
        <ele>369</ele>
        <time>2025-07-31T09:53:49.000Z</time>
      </trkpt>
      <trkpt lat="46.44447" lon="2.25918">
        <ele>371</ele>
        <time>2025-07-31T09:55:05.000Z</time>
      </trkpt>
      <trkpt lat="46.44379" lon="2.25852">
        <ele>376</ele>
        <time>2025-07-31T09:57:30.000Z</time>
      </trkpt>
      <trkpt lat="46.44342" lon="2.25823">
        <ele>380</ele>
        <time>2025-07-31T09:58:59.000Z</time>
      </trkpt>
      <trkpt lat="46.44206" lon="2.25739">
        <ele>384</ele>
        <time>2025-07-31T10:02:29.000Z</time>
      </trkpt>
      <trkpt lat="46.4416" lon="2.25718">
        <ele>385</ele>
        <time>2025-07-31T10:03:34.000Z</time>
      </trkpt>
      <trkpt lat="46.44126" lon="2.25711">
        <ele>387</ele>
        <time>2025-07-31T10:04:34.000Z</time>
      </trkpt>
      <trkpt lat="46.44083" lon="2.25684">
        <ele>390</ele>
        <time>2025-07-31T10:05:59.000Z</time>
      </trkpt>
      <trkpt lat="46.44014" lon="2.25631">
        <ele>392</ele>
        <time>2025-07-31T10:07:49.000Z</time>
      </trkpt>
      <trkpt lat="46.43929" lon="2.2556">
        <ele>395</ele>
        <time>2025-07-31T10:10:12.000Z</time>
      </trkpt>
      <trkpt lat="46.43886" lon="2.25532">
        <ele>398</ele>
        <time>2025-07-31T10:11:37.000Z</time>
      </trkpt>
      <trkpt lat="46.43857" lon="2.25509">
        <ele>400</ele>
        <time>2025-07-31T10:12:35.000Z</time>
      </trkpt>
      <trkpt lat="46.43822" lon="2.25465">
        <ele>401</ele>
        <time>2025-07-31T10:13:38.000Z</time>
      </trkpt>
      <trkpt lat="46.43806" lon="2.25449">
        <ele>402</ele>
        <time>2025-07-31T10:14:10.000Z</time>
      </trkpt>
      <trkpt lat="46.43793" lon="2.25412">
        <ele>402</ele>
        <time>2025-07-31T10:14:43.000Z</time>
      </trkpt>
      <trkpt lat="46.43773" lon="2.25404">
        <ele>402</ele>
        <time>2025-07-31T10:15:07.000Z</time>
      </trkpt>
      <trkpt lat="46.43679" lon="2.25402">
        <ele>405</ele>
        <time>2025-07-31T10:17:25.000Z</time>
      </trkpt>
      <trkpt lat="46.43641" lon="2.25392">
        <ele>407</ele>
        <time>2025-07-31T10:18:30.000Z</time>
      </trkpt>
      <trkpt lat="46.43593" lon="2.25378">
        <ele>410</ele>
        <time>2025-07-31T10:19:57.000Z</time>
      </trkpt>
      <trkpt lat="46.43528" lon="2.25395">
        <ele>415</ele>
        <time>2025-07-31T10:22:03.000Z</time>
      </trkpt>
      <trkpt lat="46.43532" lon="2.25379">
        <ele>414</ele>
        <time>2025-07-31T10:22:16.000Z</time>
      </trkpt>
      <trkpt lat="46.43529" lon="2.25366">
        <ele>414</ele>
        <time>2025-07-31T10:22:27.000Z</time>
      </trkpt>
      <trkpt lat="46.43499" lon="2.25341">
        <ele>415</ele>
        <time>2025-07-31T10:23:17.000Z</time>
      </trkpt>
      <trkpt lat="46.4348" lon="2.25332">
        <ele>416</ele>
        <time>2025-07-31T10:23:50.000Z</time>
      </trkpt>
      <trkpt lat="46.43421" lon="2.25318">
        <ele>417</ele>
        <time>2025-07-31T10:25:09.000Z</time>
      </trkpt>
      <trkpt lat="46.43378" lon="2.25295">
        <ele>418</ele>
        <time>2025-07-31T10:26:12.000Z</time>
      </trkpt>
      <trkpt lat="46.43387" lon="2.25205">
        <ele>416</ele>
        <time>2025-07-31T10:27:24.000Z</time>
      </trkpt>
      <trkpt lat="46.43391" lon="2.25175">
        <ele>417</ele>
        <time>2025-07-31T10:27:58.000Z</time>
      </trkpt>
      <trkpt lat="46.43378" lon="2.25107">
        <ele>418</ele>
        <time>2025-07-31T10:29:04.000Z</time>
      </trkpt>
      <trkpt lat="46.43365" lon="2.25094">
        <ele>419</ele>
        <time>2025-07-31T10:29:31.000Z</time>
      </trkpt>
      <trkpt lat="46.43351" lon="2.25092">
        <ele>419</ele>
        <time>2025-07-31T10:29:48.000Z</time>
      </trkpt>
      <trkpt lat="46.43335" lon="2.25097">
        <ele>420</ele>
        <time>2025-07-31T10:30:17.000Z</time>
      </trkpt>
      <trkpt lat="46.43295" lon="2.25156">
        <ele>421</ele>
        <time>2025-07-31T10:31:32.000Z</time>
      </trkpt>
      <trkpt lat="46.43259" lon="2.25213">
        <ele>421</ele>
        <time>2025-07-31T10:32:33.000Z</time>
      </trkpt>
      <trkpt lat="46.43254" lon="2.25236">
        <ele>421</ele>
        <time>2025-07-31T10:32:52.000Z</time>
      </trkpt>
      <trkpt lat="46.43256" lon="2.25285">
        <ele>421</ele>
        <time>2025-07-31T10:33:31.000Z</time>
      </trkpt>
      <trkpt lat="46.43256" lon="2.25337">
        <ele>422</ele>
        <time>2025-07-31T10:34:23.000Z</time>
      </trkpt>
      <trkpt lat="46.43249" lon="2.25387">
        <ele>425</ele>
        <time>2025-07-31T10:35:34.000Z</time>
      </trkpt>
    </trkseg>
  </trk>
</gpx>